Time;durP1;ratioP1;P1;durP2;ratioP2;P2;SDS_P1;SDS_P2;PMS_P1;PMS_P2;Temp;Humidity;BMP_temperature;BMP_pressure;BME280_temperature;BME280_humidity;BME280_pressure;Samples;Min_cycle;Max_cycle;Signal;HPM_P1;HPM_P2
2022/03/04 00:00:34;;;;;;;;;;;;;;;;;;5092131;28;983;-59
2022/03/04 00:02:59;;;;;;;;;;;;;;;;;;5092467;28;1038;-59
2022/03/04 00:05:25;;;;;;;;;;;;;;;;;;5092502;28;899;-59
2022/03/04 00:07:50;;;;;;;;;;;;;;;;;;5091989;28;1918;-59
2022/03/04 00:10:15;;;;;;;;;;;;;;;;;;5092204;28;856;-58
2022/03/04 00:12:41;;;;;;;;;;;;;;;;;;5092602;28;970;-59
2022/03/04 00:15:06;;;;;;;;;;;;;;;;;;5092164;28;609;-59
2022/03/04 00:17:31;;;;;;;;;;;;;;;;;;5091989;28;817;-59
2022/03/04 00:19:57;;;;;;;;;;;;;;;;;;5073845;28;1429;-59
2022/03/04 00:22:22;;;;;;;;;;;;;;;;;;5092257;28;837;-58
2022/03/04 00:24:47;;;;;;;;;;;;;;;;;;5093021;28;904;-58
2022/03/04 00:27:13;;;;;;;;;;;;;;;;;;5057442;28;1913;-59
2022/03/04 00:29:38;;;;;;;;;;;;;;;;;;5092343;28;1963;-59
2022/03/04 00:32:03;;;;;;;;;;;;;;;;;;5092296;28;975;-59
2022/03/04 00:34:29;;;;;;;;;;;;;;;;;;5092331;28;974;-59
2022/03/04 00:36:54;;;;;;;;;;;;;;;;;;5092216;28;1022;-59
2022/03/04 00:39:19;;;;;;;;;;;;;;;;;;5092150;28;836;-59
2022/03/04 00:41:44;;;;;;;;;;;;;;;;;;5091445;28;900;-59
2022/03/04 00:44:10;;;;;;;;;;;;;;;;;;5091695;28;1158;-59
2022/03/04 00:46:36;;;;;;;;;;;;;;;;;;5091272;28;938;-59
2022/03/04 00:49:01;;;;;;;;;;;;;;;;;;5091463;28;1951;-59
2022/03/04 00:51:26;;;;;;;;;;;;;;;;;;5091477;28;987;-59
2022/03/04 00:53:52;;;;;;;;;;;;;;;;;;5091760;28;820;-58
2022/03/04 00:56:17;;;;;;;;;;;;;;;;;;5091087;28;1065;-59
2022/03/04 00:58:42;;;;;;;;;;;;;;;;;;5091157;28;833;-59
2022/03/04 01:01:08;;;;;;;;;;;;;;;;;;5091114;28;948;-59
2022/03/04 01:03:34;;;;;;;;;;;;;;;;;;5091530;28;845;-59
2022/03/04 01:05:59;;;;;;;;;;;;;;;;;;5091659;28;880;-59
2022/03/04 01:08:25;;;;;;;;;;;;;;;;;;5091224;28;1905;-59
2022/03/04 01:10:50;;;;;;;;;;;;;;;;;;5091902;28;907;-59
2022/03/04 01:13:17;;;;;;;;;;;;;;;;;;5091383;28;833;-59
2022/03/04 01:15:42;;;;;;;;;;;;;;;;;;5091803;28;887;-58
2022/03/04 01:18:07;;;;;;;;;;;;;;;;;;5091804;28;880;-58
2022/03/04 01:20:33;;;;;;;;;;;;;;;;;;5091093;28;928;-58
2022/03/04 01:22:59;;;;;;;;;;;;;;;;;;5091281;28;935;-58
2022/03/04 01:25:24;;;;;;;;;;;;;;;;;;5091288;28;907;-58
2022/03/04 01:27:50;;;;;;;;;;;;;;;;;;5091488;28;1029;-58
2022/03/04 01:30:15;;;;;;;;;;;;;;;;;;5090570;28;892;-58
2022/03/04 01:32:41;;;;;;;;;;;;;;;;;;5091156;28;868;-58
2022/03/04 01:35:08;;;;;;;;;;;;;;;;;;5072795;28;1323;-58
2022/03/04 01:37:33;;;;;;;;;;;;;;;;;;5090967;28;845;-58
2022/03/04 01:39:58;;;;;;;;;;;;;;;;;;5091365;28;817;-58
2022/03/04 01:42:24;;;;;;;;;;;;;;;;;;5091160;28;919;-58
2022/03/04 01:44:49;;;;;;;;;;;;;;;;;;5091112;28;868;-58
2022/03/04 01:47:15;;;;;;;;;;;;;;;;;;5091509;28;829;-58
2022/03/04 01:49:40;;;;;;;;;;;;;;;;;;5090940;28;1905;-58
2022/03/04 01:52:06;;;;;;;;;;;;;;;;;;5091627;28;812;-58
2022/03/04 01:54:31;;;;;;;;;;;;;;;;;;5091139;28;974;-59
2022/03/04 01:56:57;;;;;;;;;;;;;;;;;;5091376;28;1162;-58
2022/03/04 01:59:22;;;;;;;;;;;;;;;;;;5091790;28;931;-59
2022/03/04 02:01:47;;;;;;;;;;;;;;;;;;5091549;28;825;-60
2022/03/04 02:04:12;;;;;;;;;;;;;;;;;;5091520;28;882;-59
2022/03/04 02:06:38;;;;;;;;;;;;;;;;;;5091587;28;840;-59
2022/03/04 02:09:03;;;;;;;;;;;;;;;;;;5091146;28;1909;-59
2022/03/04 02:11:29;;;;;;;;;;;;;;;;;;5090900;28;875;-59
2022/03/04 02:13:54;;;;;;;;;;;;;;;;;;5073393;28;880;-59
2022/03/04 02:16:25;;;;;;;;;;;;;;;;;;5091139;28;999;-59
2022/03/04 02:18:51;;;;;;;;;;;;;;;;;;5091604;28;864;-59
2022/03/04 02:21:17;;;;;;;;;;;;;;;;;;5090499;28;916;-59
2022/03/04 02:23:42;;;;;;;;;;;;;;;;;;5090913;28;963;-60
2022/03/04 02:26:07;;;;;;;;;;;;;;;;;;5090813;28;951;-59
2022/03/04 02:28:33;;;;;;;;;;;;;;;;;;5090751;28;1955;-59
2022/03/04 02:30:58;;;;;;;;;;;;;;;;;;5090845;28;875;-59
2022/03/04 02:33:23;;;;;;;;;;;;;;;;;;5090371;28;820;-59
2022/03/04 02:35:49;;;;;;;;;;;;;;;;;;5091136;28;848;-59
2022/03/04 02:38:14;;;;;;;;;;;;;;;;;;5090581;28;920;-59
2022/03/04 02:40:39;;;;;;;;;;;;;;;;;;5090628;28;1114;-60
2022/03/04 02:43:05;;;;;;;;;;;;;;;;;;5093778;28;924;-59
2022/03/04 02:45:30;;;;;;;;;;;;;;;;;;5094006;28;871;-59
2022/03/04 02:47:55;;;;;;;;;;;;;;;;;;5094261;28;1960;-59
2022/03/04 02:50:21;;;;;;;;;;;;;;;;;;5094331;28;1173;-59
2022/03/04 02:52:47;;;;;;;;;;;;;;;;;;5094004;28;848;-59
2022/03/04 02:55:12;;;;;;;;;;;;;;;;;;5093901;28;1062;-59
2022/03/04 02:57:42;;;;;;;;;;;;;;;;;;5094054;28;918;-59
2022/03/04 03:00:08;;;;;;;;;;;;;;;;;;5094166;28;809;-59
2022/03/04 03:02:34;;;;;;;;;;;;;;;;;;5093697;28;832;-59
2022/03/04 03:04:59;;;;;;;;;;;;;;;;;;5093891;28;836;-59
2022/03/04 03:07:25;;;;;;;;;;;;;;;;;;5093617;28;979;-59
2022/03/04 03:09:50;;;;;;;;;;;;;;;;;;5093925;28;1984;-59
2022/03/04 03:12:15;;;;;;;;;;;;;;;;;;5093495;28;1152;-59
2022/03/04 03:14:41;;;;;;;;;;;;;;;;;;5093971;28;765;-59
2022/03/04 03:17:06;;;;;;;;;;;;;;;;;;5093878;28;1061;-59
2022/03/04 03:19:31;;;;;;;;;;;;;;;;;;5093338;28;741;-60
2022/03/04 03:21:57;;;;;;;;;;;;;;;;;;5093787;28;876;-59
2022/03/04 03:24:22;;;;;;;;;;;;;;;;;;5093272;28;1309;-60
2022/03/04 03:26:47;;;;;;;;;;;;;;;;;;5093568;28;786;-59
2022/03/04 03:29:12;;;;;;;;;;;;;;;;;;5093311;28;1909;-59
2022/03/04 03:31:38;;;;;;;;;;;;;;;;;;5093542;28;841;-59
2022/03/04 03:34:03;;;;;;;;;;;;;;;;;;5093920;28;903;-59
2022/03/04 03:36:28;;;;;;;;;;;;;;;;;;5093818;28;766;-59
2022/03/04 03:38:53;;;;;;;;;;;;;;;;;;5093898;28;821;-59
2022/03/04 03:41:19;;;;;;;;;;;;;;;;;;5093406;28;990;-59
2022/03/04 03:43:44;;;;;;;;;;;;;;;;;;5075582;28;813;-59
2022/03/04 03:46:09;;;;;;;;;;;;;;;;;;5093645;28;793;-59
2022/03/04 03:48:35;;;;;;;;;;;;;;;;;;5093070;28;1894;-59
2022/03/04 03:51:00;;;;;;;;;;;;;;;;;;5093354;28;1044;-59
2022/03/04 03:53:25;;;;;;;;;;;;;;;;;;5092822;28;824;-59
2022/03/04 03:55:50;;;;;;;;;;;;;;;;;;5092818;28;1155;-59
2022/03/04 03:58:15;;;;;;;;;;;;;;;;;;5093315;28;884;-59
2022/03/04 04:00:41;;;;;;;;;;;;;;;;;;5093332;28;887;-59
2022/03/04 04:03:08;;;;;;;;;;;;;;;;;;5075522;28;816;-59
2022/03/04 04:05:33;;;;;;;;;;;;;;;;;;5092823;28;836;-59
2022/03/04 04:07:58;;;;;;;;;;;;;;;;;;5092422;28;1975;-59
2022/03/04 04:10:24;;;;;;;;;;;;;;;;;;5057607;28;880;-59
2022/03/04 04:12:49;;;;;;;;;;;;;;;;;;5092415;28;824;-59
2022/03/04 04:15:14;;;;;;;;;;;;;;;;;;5092377;28;864;-60
2022/03/04 04:17:40;;;;;;;;;;;;;;;;;;5092229;28;958;-59
2022/03/04 04:20:06;;;;;;;;;;;;;;;;;;5092529;28;852;-59
2022/03/04 04:22:31;;;;;;;;;;;;;;;;;;5073666;28;801;-59
2022/03/04 04:24:56;;;;;;;;;;;;;;;;;;5092356;28;962;-59
2022/03/04 04:27:21;;;;;;;;;;;;;;;;;;5091977;28;994;-59
2022/03/04 04:29:47;;;;;;;;;;;;;;;;;;5092180;28;1898;-59
2022/03/04 04:32:12;;;;;;;;;;;;;;;;;;5092420;28;923;-59
2022/03/04 04:34:37;;;;;;;;;;;;;;;;;;5073664;28;910;-59
2022/03/04 04:37:03;;;;;;;;;;;;;;;;;;5092248;28;888;-58
2022/03/04 04:39:28;;;;;;;;;;;;;;;;;;5073095;28;918;-59
2022/03/04 04:41:53;;;;;;;;;;;;;;;;;;5092080;28;848;-59
2022/03/04 04:44:18;;;;;;;;;;;;;;;;;;5091920;28;1035;-58
2022/03/04 04:46:44;;;;;;;;;;;;;;;;;;5091657;28;933;-58
2022/03/04 04:49:09;;;;;;;;;;;;;;;;;;5091946;28;1963;-58
2022/03/04 04:51:35;;;;;;;;;;;;;;;;;;5091249;28;855;-60
2022/03/04 04:54:00;;;;;;;;;;;;;;;;;;5091900;28;900;-58
2022/03/04 04:56:25;;;;;;;;;;;;;;;;;;5091117;28;1092;-58
2022/03/04 04:58:50;;;;;;;;;;;;;;;;;;5092093;28;888;-58
2022/03/04 05:01:16;;;;;;;;;;;;;;;;;;5091983;28;808;-58
2022/03/04 05:03:43;;;;;;;;;;;;;;;;;;5091372;28;876;-59
2022/03/04 05:06:08;;;;;;;;;;;;;;;;;;5091783;28;923;-59
2022/03/04 05:08:34;;;;;;;;;;;;;;;;;;5091373;28;1906;-59
2022/03/04 05:11:00;;;;;;;;;;;;;;;;;;5091988;28;855;-59
2022/03/04 05:13:25;;;;;;;;;;;;;;;;;;5091553;28;930;-59
2022/03/04 05:15:50;;;;;;;;;;;;;;;;;;5073957;28;1316;-59
2022/03/04 05:18:16;;;;;;;;;;;;;;;;;;5091995;28;1005;-59
2022/03/04 05:20:41;;;;;;;;;;;;;;;;;;5091703;28;920;-59
2022/03/04 05:23:06;;;;;;;;;;;;;;;;;;5092006;28;927;-59
2022/03/04 05:25:32;;;;;;;;;;;;;;;;;;5091746;28;798;-59
2022/03/04 05:27:57;;;;;;;;;;;;;;;;;;5091900;28;880;-59
2022/03/04 05:30:22;;;;;;;;;;;;;;;;;;5091964;28;1958;-59
2022/03/04 05:32:47;;;;;;;;;;;;;;;;;;5073493;28;935;-59
2022/03/04 05:35:13;;;;;;;;;;;;;;;;;;5091901;28;864;-59
2022/03/04 05:37:38;;;;;;;;;;;;;;;;;;5091251;28;820;-58
2022/03/04 05:40:04;;;;;;;;;;;;;;;;;;5091986;28;871;-59
2022/03/04 05:42:30;;;;;;;;;;;;;;;;;;5073510;28;1182;-59
2022/03/04 05:44:55;;;;;;;;;;;;;;;;;;5088634;28;1293;-59
2022/03/04 05:47:20;;;;;;;;;;;;;;;;;;5111093;28;1241;-59
2022/03/04 05:49:46;;;;;;;;;;;;;;;;;;5111448;28;1936;-59
2022/03/04 05:52:11;;;;;;;;;;;;;;;;;;5112498;28;832;-59
2022/03/04 05:54:36;;;;;;;;;;;;;;;;;;5111521;28;1054;-59
2022/03/04 05:57:02;;;;;;;;;;;;;;;;;;5111631;28;1298;-59
2022/03/04 05:59:27;;;;;;;;;;;;;;;;;;5111991;28;879;-60
2022/03/04 06:01:52;;;;;;;;;;;;;;;;;;5112401;28;901;-59
2022/03/04 06:04:18;;;;;;;;;;;;;;;;;;5112368;28;867;-59
2022/03/04 06:06:43;;;;;;;;;;;;;;;;;;5111867;28;947;-59
2022/03/04 06:09:09;;;;;;;;;;;;;;;;;;5112394;28;1910;-59
2022/03/04 06:11:34;;;;;;;;;;;;;;;;;;5111886;28;820;-59
2022/03/04 06:13:59;;;;;;;;;;;;;;;;;;5112233;28;883;-59
2022/03/04 06:16:24;;;;;;;;;;;;;;;;;;5112531;28;939;-59
2022/03/04 06:18:51;;;;;;;;;;;;;;;;;;5115392;28;890;-59
2022/03/04 06:21:16;;;;;;;;;;;;;;;;;;5115623;28;839;-59
2022/03/04 06:23:42;;;;;;;;;;;;;;;;;;5115638;28;986;-63
2022/03/04 06:26:08;;;;;;;;;;;;;;;;;;5116771;28;879;-60
2022/03/04 06:28:33;;;;;;;;;;;;;;;;;;5115637;28;1902;-59
2022/03/04 06:30:58;;;;;;;;;;;;;;;;;;5115707;28;848;-59
2022/03/04 06:33:32;;;;;;;;;;;;;;;;;;5115428;28;832;-59
2022/03/04 06:36:05;;;;;;;;;;;;;;;;;;5098569;28;867;-59
2022/03/04 06:38:31;;;;;;;;;;;;;;;;;;5114592;28;836;-59
2022/03/04 06:40:57;;;;;;;;;;;;;;;;;;5114936;28;812;-59
2022/03/04 06:43:22;;;;;;;;;;;;;;;;;;5115187;28;809;-59
2022/03/04 06:45:47;;;;;;;;;;;;;;;;;;5115265;28;805;-60
2022/03/04 06:48:14;;;;;;;;;;;;;;;;;;5115474;28;1890;-59
2022/03/04 06:50:40;;;;;;;;;;;;;;;;;;5115190;28;918;-59
2022/03/04 06:53:05;;;;;;;;;;;;;;;;;;5114726;28;931;-59
2022/03/04 06:55:31;;;;;;;;;;;;;;;;;;5114460;28;1159;-59
2022/03/04 06:57:56;;;;;;;;;;;;;;;;;;5114662;28;840;-60
2022/03/04 07:00:22;;;;;;;;;;;;;;;;;;5114818;28;892;-59
2022/03/04 07:02:47;;;;;;;;;;;;;;;;;;5114178;28;812;-59
2022/03/04 07:05:13;;;;;;;;;;;;;;;;;;5114183;28;820;-59
2022/03/04 07:07:38;;;;;;;;;;;;;;;;;;5113867;28;820;-58
2022/03/04 07:10:04;;;;;;;;;;;;;;;;;;5113811;28;1969;-59
2022/03/04 07:12:29;;;;;;;;;;;;;;;;;;5114077;28;959;-59
2022/03/04 07:14:55;;;;;;;;;;;;;;;;;;5096348;28;802;-59
2022/03/04 07:17:21;;;;;;;;;;;;;;;;;;5114108;28;877;-59
2022/03/04 07:19:46;;;;;;;;;;;;;;;;;;5114120;28;856;-59
2022/03/04 07:22:11;;;;;;;;;;;;;;;;;;5114600;28;746;-59
2022/03/04 07:24:36;;;;;;;;;;;;;;;;;;5114452;28;820;-59
2022/03/04 07:27:02;;;;;;;;;;;;;;;;;;5113721;28;864;-59
2022/03/04 07:29:27;;;;;;;;;;;;;;;;;;5113931;28;1905;-59
2022/03/04 07:31:56;;;;;;;;;;;;;;;;;;5113992;28;986;-59
2022/03/04 07:34:22;;;;;;;;;;;;;;;;;;5113768;28;894;-59
2022/03/04 07:36:47;;;;;;;;;;;;;;;;;;5113213;28;1164;-59
2022/03/04 07:39:13;;;;;;;;;;;;;;;;;;5095537;28;1291;-60
2022/03/04 07:41:38;;;;;;;;;;;;;;;;;;5113199;28;820;-60
2022/03/04 07:44:03;;;;;;;;;;;;;;;;;;5112994;28;958;-59
2022/03/04 07:46:29;;;;;;;;;;;;;;;;;;5113004;28;803;-60
2022/03/04 07:48:54;;;;;;;;;;;;;;;;;;5112548;28;1913;-60
2022/03/04 07:51:19;;;;;;;;;;;;;;;;;;5113428;28;1378;-59
2022/03/04 07:53:44;;;;;;;;;;;;;;;;;;5112319;28;979;-59
2022/03/04 07:56:10;;;;;;;;;;;;;;;;;;5112498;28;1026;-60
2022/03/04 07:58:35;;;;;;;;;;;;;;;;;;5112489;28;815;-59
2022/03/04 08:01:01;;;;;;;;;;;;;;;;;;5112753;28;829;-59
2022/03/04 08:03:26;;;;;;;;;;;;;;;;;;5112712;28;990;-59
2022/03/04 08:05:51;;;;;;;;;;;;;;;;;;5077335;28;1219;-60
2022/03/04 08:08:16;;;;;;;;;;;;;;;;;;5094350;28;1906;-59
2022/03/04 08:10:42;;;;;;;;;;;;;;;;;;5112287;28;872;-59
2022/03/04 08:13:07;;;;;;;;;;;;;;;;;;5094123;28;915;-60
2022/03/04 08:15:32;;;;;;;;;;;;;;;;;;5112355;28;789;-59
2022/03/04 08:17:57;;;;;;;;;;;;;;;;;;5093917;28;674;-60
2022/03/04 08:20:24;;;;;;;;;;;;;;;;;;5112434;28;921;-60
2022/03/04 08:22:49;;;;;;;;;;;;;;;;;;5112187;28;793;-59
2022/03/04 08:25:15;;;;;;;;;;;;;;;;;;5112448;28;1034;-60
2022/03/04 08:27:41;;;;;;;;;;;;;;;;;;5112369;28;1158;-60
2022/03/04 08:30:07;;;;;;;;;;;;;;;;;;5112509;28;1948;-59
2022/03/04 08:32:32;;;;;;;;;;;;;;;;;;5112226;28;962;-59
2022/03/04 08:35:01;;;;;;;;;;;;;;;;;;5112185;28;817;-59
2022/03/04 08:37:26;;;;;;;;;;;;;;;;;;5094063;28;910;-59
2022/03/04 08:39:51;;;;;;;;;;;;;;;;;;5111483;28;883;-58
2022/03/04 08:42:16;;;;;;;;;;;;;;;;;;5112331;28;939;-60
2022/03/04 08:44:42;;;;;;;;;;;;;;;;;;5112052;28;828;-60
2022/03/04 08:47:08;;;;;;;;;;;;;;;;;;5112221;28;968;-59
2022/03/04 08:49:34;;;;;;;;;;;;;;;;;;5111861;28;1898;-60
2022/03/04 08:51:59;;;;;;;;;;;;;;;;;;5112379;28;970;-60
2022/03/04 08:54:25;;;;;;;;;;;;;;;;;;5112242;28;841;-60
2022/03/04 08:56:50;;;;;;;;;;;;;;;;;;5111994;28;1219;-60
2022/03/04 08:59:15;;;;;;;;;;;;;;;;;;5112242;28;967;-59
2022/03/04 09:01:41;;;;;;;;;;;;;;;;;;5112205;28;888;-60
2022/03/04 09:04:07;;;;;;;;;;;;;;;;;;5094098;28;832;-60
2022/03/04 09:06:32;;;;;;;;;;;;;;;;;;5093732;28;892;-59
2022/03/04 09:08:57;;;;;;;;;;;;;;;;;;5112375;28;1918;-60
2022/03/04 09:11:22;;;;;;;;;;;;;;;;;;5111788;28;892;-60
2022/03/04 09:13:48;;;;;;;;;;;;;;;;;;5111231;28;1138;-60
2022/03/04 09:16:14;;;;;;;;;;;;;;;;;;5111346;28;832;-60
2022/03/04 09:18:39;;;;;;;;;;;;;;;;;;5111401;28;1619;-59
2022/03/04 09:21:04;;;;;;;;;;;;;;;;;;5111193;28;840;-60
2022/03/04 09:23:30;;;;;;;;;;;;;;;;;;5110998;28;894;-60
2022/03/04 09:25:55;;;;;;;;;;;;;;;;;;5111169;28;1048;-60
2022/03/04 09:28:20;;;;;;;;;;;;;;;;;;5111423;28;1891;-59
2022/03/04 09:30:46;;;;;;;;;;;;;;;;;;5110870;28;944;-60
2022/03/04 09:33:11;;;;;;;;;;;;;;;;;;5111219;28;808;-59
2022/03/04 09:35:37;;;;;;;;;;;;;;;;;;5110893;28;852;-60
2022/03/04 09:38:03;;;;;;;;;;;;;;;;;;5111220;28;863;-60
2022/03/04 09:40:28;;;;;;;;;;;;;;;;;;5111160;28;847;-60
2022/03/04 09:42:54;;;;;;;;;;;;;;;;;;5110953;28;951;-61
2022/03/04 09:45:19;;;;;;;;;;;;;;;;;;5111663;28;738;-59
2022/03/04 09:47:45;;;;;;;;;;;;;;;;;;5111274;28;899;-59
2022/03/04 09:50:10;;;;;;;;;;;;;;;;;;5110874;28;1886;-60
2022/03/04 09:52:35;;;;;;;;;;;;;;;;;;5114863;28;822;-59
2022/03/04 09:55:01;;;;;;;;;;;;;;;;;;5115086;28;863;-60
2022/03/04 09:57:27;;;;;;;;;;;;;;;;;;5114673;28;1214;-60
2022/03/04 09:59:52;;;;;;;;;;;;;;;;;;5115122;28;828;-60
2022/03/04 10:02:19;;;;;;;;;;;;;;;;;;5115351;28;697;-59
2022/03/04 10:04:45;;;;;;;;;;;;;;;;;;5115185;28;859;-60
2022/03/04 10:07:14;;;;;;;;;;;;;;;;;;5115215;28;884;-60
2022/03/04 10:09:43;;;;;;;;;;;;;;;;;;5115609;28;1886;-59
2022/03/04 10:12:09;;;;;;;;;;;;;;;;;;5116246;28;796;-60
2022/03/04 10:14:34;;;;;;;;;;;;;;;;;;5115286;28;876;-59
2022/03/04 10:17:00;;;;;;;;;;;;;;;;;;5115479;28;925;-60
2022/03/04 10:19:25;;;;;;;;;;;;;;;;;;5115502;28;820;-60
2022/03/04 10:21:51;;;;;;;;;;;;;;;;;;5114975;28;856;-60
2022/03/04 10:24:17;;;;;;;;;;;;;;;;;;5114826;28;872;-60
2022/03/04 10:26:42;;;;;;;;;;;;;;;;;;5115211;28;793;-60
2022/03/04 10:29:21;;;;;;;;;;;;;;;;;;5115163;28;1878;-60
2022/03/04 10:32:05;;;;;;;;;;;;;;;;;;5115889;28;982;-60
2022/03/04 10:34:42;;;;;;;;;;;;;;;;;;5115666;28;851;-60
2022/03/04 10:37:07;;;;;;;;;;;;;;;;;;5115522;28;911;-60
2022/03/04 10:39:33;;;;;;;;;;;;;;;;;;5115786;28;955;-60
2022/03/04 10:41:58;;;;;;;;;;;;;;;;;;5115846;28;894;-60
2022/03/04 10:44:24;;;;;;;;;;;;;;;;;;5115531;28;825;-60
2022/03/04 10:46:57;;;;;;;;;;;;;;;;;;5115035;28;825;-59
2022/03/04 10:49:27;;;;;;;;;;;;;;;;;;5114880;28;1943;-59
2022/03/04 10:52:05;;;;;;;;;;;;;;;;;;5115219;28;797;-60
2022/03/04 10:54:30;;;;;;;;;;;;;;;;;;5114715;28;907;-60
2022/03/04 10:56:56;;;;;;;;;;;;;;;;;;5096347;28;1191;-59
2022/03/04 10:59:24;;;;;;;;;;;;;;;;;;5114462;28;885;-59
2022/03/04 11:01:50;;;;;;;;;;;;;;;;;;5095757;28;1675;-59
2022/03/04 11:04:17;;;;;;;;;;;;;;;;;;5095979;28;813;-60
2022/03/04 11:06:45;;;;;;;;;;;;;;;;;;5114280;28;809;-60
2022/03/04 11:09:11;;;;;;;;;;;;;;;;;;5114905;28;1968;-58
2022/03/04 11:11:37;;;;;;;;;;;;;;;;;;5096494;28;820;-58
2022/03/04 11:14:02;;;;;;;;;;;;;;;;;;5114800;28;757;-59
2022/03/04 11:16:27;;;;;;;;;;;;;;;;;;5114444;28;1006;-59
2022/03/04 11:18:54;;;;;;;;;;;;;;;;;;5114374;28;892;-59
2022/03/04 11:21:19;;;;;;;;;;;;;;;;;;5114156;28;961;-59
2022/03/04 11:23:46;;;;;;;;;;;;;;;;;;5113745;28;855;-59
2022/03/04 11:26:17;;;;;;;;;;;;;;;;;;5113946;28;1002;-60
2022/03/04 11:28:43;;;;;;;;;;;;;;;;;;5095819;28;1900;-59
2022/03/04 11:31:09;;;;;;;;;;;;;;;;;;5115152;28;816;-59
2022/03/04 11:33:42;;;;;;;;;;;;;;;;;;5113845;28;858;-60
2022/03/04 11:36:22;;;;;;;;;;;;;;;;;;5113198;28;832;-59
2022/03/04 11:38:47;;;;;;;;;;;;;;;;;;5112780;28;869;-59
2022/03/04 11:41:18;;;;;;;;;;;;;;;;;;5113299;28;1410;-59
2022/03/04 11:43:45;;;;;;;;;;;;;;;;;;5113064;28;1047;-59
2022/03/04 11:46:17;;;;;;;;;;;;;;;;;;5113117;28;1117;-59
2022/03/04 11:48:42;;;;;;;;;;;;;;;;;;5112762;28;1886;-59
2022/03/04 11:51:14;;;;;;;;;;;;;;;;;;5112532;28;971;-59
2022/03/04 11:53:39;;;;;;;;;;;;;;;;;;5112674;28;819;-59
2022/03/04 11:56:11;;;;;;;;;;;;;;;;;;5094374;28;1206;-59
2022/03/04 11:58:54;;;;;;;;;;;;;;;;;;5112404;28;942;-59
2022/03/04 12:01:25;;;;;;;;;;;;;;;;;;5112881;28;908;-59
2022/03/04 12:04:07;;;;;;;;;;;;;;;;;;5112508;28;836;-59
2022/03/04 12:06:32;;;;;;;;;;;;;;;;;;5112552;28;859;-58
2022/03/04 12:09:17;;;;;;;;;;;;;;;;;;5111552;28;1973;-58
2022/03/04 12:12:02;;;;;;;;;;;;;;;;;;5110907;28;1776;-59
2022/03/04 12:14:28;;;;;;;;;;;;;;;;;;5112425;28;1831;-58
2022/03/04 12:16:56;;;;;;;;;;;;;;;;;;5112823;28;829;-58
2022/03/04 12:19:33;;;;;;;;;;;;;;;;;;5112820;28;1192;-59
2022/03/04 12:21:58;;;;;;;;;;;;;;;;;;5113067;28;842;-58
2022/03/04 12:24:30;;;;;;;;;;;;;;;;;;5112760;28;1173;-59
2022/03/04 12:26:55;;;;;;;;;;;;;;;;;;5112662;28;820;-58
2022/03/04 12:29:23;;;;;;;;;;;;;;;;;;5112603;28;1953;-58
2022/03/04 12:31:49;;;;;;;;;;;;;;;;;;5112833;28;897;-58
2022/03/04 12:34:21;;;;;;;;;;;;;;;;;;5094598;28;824;-59
2022/03/04 12:36:47;;;;;;;;;;;;;;;;;;5111689;28;908;-58
2022/03/04 12:39:16;;;;;;;;;;;;;;;;;;5110702;28;843;-59
2022/03/04 12:41:41;;;;;;;;;;;;;;;;;;5112252;28;903;-58
2022/03/04 12:44:07;;;;;;;;;;;;;;;;;;5112849;28;903;-58
2022/03/04 12:46:34;;;;;;;;;;;;;;;;;;5112117;28;1087;-58
2022/03/04 12:49:00;;;;;;;;;;;;;;;;;;5112387;28;1956;-58
2022/03/04 12:51:33;;;;;;;;;;;;;;;;;;5093596;28;1393;-59
2022/03/04 12:54:00;;;;;;;;;;;;;;;;;;5112422;28;836;-58
2022/03/04 12:56:26;;;;;;;;;;;;;;;;;;5111823;28;1056;-59
2022/03/04 12:58:52;;;;;;;;;;;;;;;;;;5111768;28;848;-59
2022/03/04 13:01:19;;;;;;;;;;;;;;;;;;5112104;28;813;-59
2022/03/04 13:03:49;;;;;;;;;;;;;;;;;;5111854;28;801;-58
2022/03/04 13:06:15;;;;;;;;;;;;;;;;;;5111718;28;899;-58
2022/03/04 13:08:46;;;;;;;;;;;;;;;;;;5111439;28;1914;-59
2022/03/04 13:11:12;;;;;;;;;;;;;;;;;;5111876;28;855;-58
2022/03/04 13:13:52;;;;;;;;;;;;;;;;;;5111137;28;873;-58
2022/03/04 13:16:23;;;;;;;;;;;;;;;;;;5111361;28;871;-59
2022/03/04 13:18:48;;;;;;;;;;;;;;;;;;5111808;28;847;-59
2022/03/04 13:21:13;;;;;;;;;;;;;;;;;;5111666;28;862;-58
2022/03/04 13:23:47;;;;;;;;;;;;;;;;;;5111178;28;820;-59
2022/03/04 13:26:13;;;;;;;;;;;;;;;;;;5110849;28;828;-58
2022/03/04 13:28:57;;;;;;;;;;;;;;;;;;5111001;28;1965;-59
2022/03/04 13:31:24;;;;;;;;;;;;;;;;;;5110856;28;859;-59
2022/03/04 13:33:54;;;;;;;;;;;;;;;;;;5111334;28;835;-58
2022/03/04 13:36:35;;;;;;;;;;;;;;;;;;5111251;28;920;-59
2022/03/04 13:39:17;;;;;;;;;;;;;;;;;;5111290;28;932;-59
2022/03/04 13:41:43;;;;;;;;;;;;;;;;;;5110834;28;824;-59
2022/03/04 13:44:12;;;;;;;;;;;;;;;;;;5111380;28;817;-60
2022/03/04 13:46:57;;;;;;;;;;;;;;;;;;5111106;28;987;-59
2022/03/04 13:49:22;;;;;;;;;;;;;;;;;;5111043;28;1969;-59
2022/03/04 13:52:00;;;;;;;;;;;;;;;;;;5111113;28;836;-59
2022/03/04 13:54:46;;;;;;;;;;;;;;;;;;5111496;28;841;-59
2022/03/04 13:57:23;;;;;;;;;;;;;;;;;;5096532;28;2156;-59
2022/03/04 13:59:48;;;;;;;;;;;;;;;;;;5110853;28;833;-59
2022/03/04 14:02:14;;;;;;;;;;;;;;;;;;5111267;28;967;-59
2022/03/04 14:05:00;;;;;;;;;;;;;;;;;;5111294;28;824;-59
2022/03/04 14:07:25;;;;;;;;;;;;;;;;;;5110744;28;1473;-59
2022/03/04 14:09:51;;;;;;;;;;;;;;;;;;5110580;28;1968;-59
2022/03/04 14:12:17;;;;;;;;;;;;;;;;;;5111104;28;844;-59
2022/03/04 14:14:42;;;;;;;;;;;;;;;;;;5092299;28;943;-59
2022/03/04 14:17:07;;;;;;;;;;;;;;;;;;5111549;28;839;-60
2022/03/04 14:19:33;;;;;;;;;;;;;;;;;;5110882;28;874;-60
2022/03/04 14:21:58;;;;;;;;;;;;;;;;;;5111226;28;808;-59
2022/03/04 14:24:23;;;;;;;;;;;;;;;;;;5111683;28;994;-59
2022/03/04 14:26:49;;;;;;;;;;;;;;;;;;5111240;28;932;-59
2022/03/04 14:29:20;;;;;;;;;;;;;;;;;;5111076;28;1945;-59
2022/03/04 14:31:46;;;;;;;;;;;;;;;;;;5110361;28;831;-59
2022/03/04 14:34:11;;;;;;;;;;;;;;;;;;5111158;28;871;-60
2022/03/04 14:36:37;;;;;;;;;;;;;;;;;;5111010;28;1210;-59
2022/03/04 14:39:02;;;;;;;;;;;;;;;;;;5114744;28;860;-60
2022/03/04 14:41:27;;;;;;;;;;;;;;;;;;5114982;28;828;-59
2022/03/04 14:43:52;;;;;;;;;;;;;;;;;;5096735;28;896;-59
2022/03/04 14:46:18;;;;;;;;;;;;;;;;;;5114666;28;871;-59
2022/03/04 14:48:45;;;;;;;;;;;;;;;;;;5095315;28;1893;-60
2022/03/04 14:51:10;;;;;;;;;;;;;;;;;;5114406;28;1030;-59
2022/03/04 14:53:35;;;;;;;;;;;;;;;;;;5114014;28;859;-59
2022/03/04 14:56:00;;;;;;;;;;;;;;;;;;5095225;28;1064;-59
2022/03/04 14:58:26;;;;;;;;;;;;;;;;;;5113983;28;975;-59
2022/03/04 15:00:52;;;;;;;;;;;;;;;;;;5114095;28;892;-59
2022/03/04 15:03:18;;;;;;;;;;;;;;;;;;5114963;28;835;-59
2022/03/04 15:05:43;;;;;;;;;;;;;;;;;;5114095;28;859;-59
2022/03/04 15:08:08;;;;;;;;;;;;;;;;;;5114177;28;943;-59
2022/03/04 15:10:34;;;;;;;;;;;;;;;;;;5114255;28;1961;-59
2022/03/04 15:12:59;;;;;;;;;;;;;;;;;;5113812;28;815;-59
2022/03/04 15:15:25;;;;;;;;;;;;;;;;;;5114416;28;915;-59
2022/03/04 15:17:50;;;;;;;;;;;;;;;;;;5113226;28;951;-59
2022/03/04 15:20:16;;;;;;;;;;;;;;;;;;5113971;28;805;-59
2022/03/04 15:22:42;;;;;;;;;;;;;;;;;;5113173;28;899;-59
2022/03/04 15:25:08;;;;;;;;;;;;;;;;;;5113759;28;686;-59
2022/03/04 15:27:33;;;;;;;;;;;;;;;;;;5113425;28;1641;-60
2022/03/04 15:29:58;;;;;;;;;;;;;;;;;;5094960;28;1906;-59
2022/03/04 15:32:24;;;;;;;;;;;;;;;;;;5113850;28;987;-59
2022/03/04 15:34:49;;;;;;;;;;;;;;;;;;5113378;28;824;-59
2022/03/04 15:37:14;;;;;;;;;;;;;;;;;;5113760;28;1180;-59
2022/03/04 15:39:40;;;;;;;;;;;;;;;;;;5113361;28;879;-60
2022/03/04 15:42:06;;;;;;;;;;;;;;;;;;5113634;28;912;-60
2022/03/04 15:44:31;;;;;;;;;;;;;;;;;;5113666;28;878;-60
2022/03/04 15:46:57;;;;;;;;;;;;;;;;;;5113253;28;834;-59
2022/03/04 15:49:24;;;;;;;;;;;;;;;;;;5113412;28;1967;-59
2022/03/04 15:51:50;;;;;;;;;;;;;;;;;;5113653;28;844;-59
2022/03/04 15:54:16;;;;;;;;;;;;;;;;;;5113658;28;822;-59
2022/03/04 15:56:41;;;;;;;;;;;;;;;;;;5112733;28;1074;-59
2022/03/04 15:59:07;;;;;;;;;;;;;;;;;;5113616;28;892;-59
2022/03/04 16:01:33;;;;;;;;;;;;;;;;;;5113824;28;923;-59
2022/03/04 16:03:59;;;;;;;;;;;;;;;;;;5113301;28;879;-60
2022/03/04 16:06:25;;;;;;;;;;;;;;;;;;5113773;28;812;-59
2022/03/04 16:08:52;;;;;;;;;;;;;;;;;;5113298;28;1913;-60
2022/03/04 16:11:18;;;;;;;;;;;;;;;;;;5095312;28;923;-59
2022/03/04 16:13:45;;;;;;;;;;;;;;;;;;5113038;28;935;-60
2022/03/04 16:16:12;;;;;;;;;;;;;;;;;;5113729;28;935;-59
2022/03/04 16:18:38;;;;;;;;;;;;;;;;;;5113147;28;874;-59
2022/03/04 16:21:04;;;;;;;;;;;;;;;;;;5113522;28;804;-59
2022/03/04 16:23:29;;;;;;;;;;;;;;;;;;5113463;28;852;-59
2022/03/04 16:25:54;;;;;;;;;;;;;;;;;;5112807;28;829;-59
2022/03/04 16:28:20;;;;;;;;;;;;;;;;;;5113208;28;813;-59
2022/03/04 16:30:46;;;;;;;;;;;;;;;;;;5112523;28;1902;-59
2022/03/04 16:33:11;;;;;;;;;;;;;;;;;;5113427;28;1019;-59
2022/03/04 16:35:36;;;;;;;;;;;;;;;;;;5113079;28;1034;-59
2022/03/04 16:38:03;;;;;;;;;;;;;;;;;;5113318;28;809;-59
2022/03/04 16:40:29;;;;;;;;;;;;;;;;;;5095415;28;770;-59
2022/03/04 16:42:54;;;;;;;;;;;;;;;;;;5112993;28;935;-59
2022/03/04 16:45:19;;;;;;;;;;;;;;;;;;5113231;28;813;-59
2022/03/04 16:47:45;;;;;;;;;;;;;;;;;;5112618;28;933;-60
2022/03/04 16:50:10;;;;;;;;;;;;;;;;;;5113302;28;1910;-59
2022/03/04 16:52:35;;;;;;;;;;;;;;;;;;5112897;28;799;-60
2022/03/04 16:55:02;;;;;;;;;;;;;;;;;;5112471;28;914;-59
2022/03/04 16:57:27;;;;;;;;;;;;;;;;;;5112519;28;1147;-59
2022/03/04 16:59:52;;;;;;;;;;;;;;;;;;5111377;28;866;-59
2022/03/04 17:02:18;;;;;;;;;;;;;;;;;;5111942;28;832;-59
2022/03/04 17:04:43;;;;;;;;;;;;;;;;;;5111164;28;883;-59
2022/03/04 17:07:12;;;;;;;;;;;;;;;;;;5111580;28;749;-59
2022/03/04 17:09:38;;;;;;;;;;;;;;;;;;5111838;28;1910;-59